Time;durP1;ratioP1;P1;durP2;ratioP2;P2;SDS_P1;SDS_P2;PMS_P1;PMS_P2;Temp;Humidity;BMP_temperature;BMP_pressure;BME280_temperature;BME280_humidity;BME280_pressure;Samples;Min_cycle;Max_cycle;Signal;HPM_P1;HPM_P2
2022/08/26 00:01:11;;;;;;;20.75;8.73;;;;;;;19.90;71.39;98346.56;5002148;28;20036;-84
2022/08/26 00:03:38;;;;;;;22.05;8.95;;;;;;;19.89;71.47;98349.72;5002337;28;20054;-84
2022/08/26 00:06:04;;;;;;;19.38;9.45;;;;;;;19.86;71.61;98347.63;5004180;28;20030;-83
2022/08/26 00:08:30;;;;;;;16.40;9.02;;;;;;;19.84;71.84;98344.41;5009031;28;20096;-83
2022/08/26 00:10:56;;;;;;;18.45;9.25;;;;;;;19.83;71.63;98343.59;5005369;28;20034;-84
2022/08/26 00:13:21;;;;;;;26.33;11.68;;;;;;;19.78;71.51;98347.47;5002558;28;20041;-83
2022/08/26 00:15:49;;;;;;;20.05;10.30;;;;;;;19.77;71.73;98347.81;5002429;28;20062;-84
2022/08/26 00:18:16;;;;;;;17.77;9.10;;;;;;;19.75;71.76;98345.41;5006550;28;21341;-84
2022/08/26 00:20:41;;;;;;;17.33;8.60;;;;;;;19.72;71.68;98348.91;5002381;28;20041;-84
2022/08/26 00:23:06;;;;;;;14.38;8.48;;;;;;;19.71;71.79;98349.28;5004245;28;20447;-85
2022/08/26 00:25:32;;;;;;;16.70;8.27;;;;;;;19.70;71.70;98350.44;5006493;28;20033;-85
2022/08/26 00:27:59;;;;;;;16.65;8.35;;;;;;;19.69;71.98;98340.47;5006242;28;20034;-84
2022/08/26 00:30:27;;;;;;;18.60;8.77;;;;;;;19.67;71.96;98346.38;5001392;28;20026;-84
2022/08/26 00:32:54;;;;;;;15.98;8.48;;;;;;;19.63;71.96;98343.53;4997728;28;20057;-84
2022/08/26 00:35:20;;;;;;;22.27;8.65;;;;;;;19.63;71.90;98342.69;5000525;28;20034;-84
2022/08/26 00:37:46;;;;;;;19.67;9.65;;;;;;;19.62;71.56;98344.69;5001940;28;20140;-85
2022/08/26 00:40:16;;;;;;;17.75;8.32;;;;;;;19.61;71.93;98345.84;5006809;28;20104;-84
2022/08/26 00:42:43;;;;;;;18.60;9.23;;;;;;;19.59;72.06;98337.06;5007508;28;20033;-84
2022/08/26 00:45:09;;;;;;;17.58;9.07;;;;;;;19.59;72.13;98339.03;5004819;28;20038;-85
2022/08/26 00:47:45;;;;;;;17.70;9.18;;;;;;;19.56;72.00;98339.78;5008355;28;20026;-85
2022/08/26 00:50:20;;;;;;;21.00;8.90;;;;;;;19.53;71.99;98338.50;4997352;28;20290;-85
2022/08/26 00:52:46;;;;;;;15.93;9.30;;;;;;;19.52;72.17;98336.88;5002828;28;20365;-85
2022/08/26 00:55:18;;;;;;;19.50;8.70;;;;;;;19.49;71.95;98346.75;5002755;28;20068;-84
2022/08/26 00:57:44;;;;;;;18.35;8.95;;;;;;;19.48;71.92;98342.38;5005576;28;20491;-84
2022/08/26 01:00:16;;;;;;;16.92;8.95;;;;;;;19.46;71.68;98339.13;5008108;28;20101;-83
2022/08/26 01:02:43;;;;;;;16.77;8.90;;;;;;;19.42;72.16;98341.00;5004548;28;20056;-83
2022/08/26 01:05:10;;;;;;;16.90;8.48;;;;;;;19.41;72.21;98344.13;5006287;28;20037;-83
2022/08/26 01:07:36;;;;;;;18.55;9.52;;;;;;;19.39;71.70;98350.06;4999016;28;20534;-83
2022/08/26 01:10:07;;;;;;;19.35;9.07;;;;;;;19.36;72.37;98347.22;5002074;28;20034;-84
2022/08/26 01:12:38;;;;;;;17.90;8.40;;;;;;;19.34;72.07;98342.81;5007795;28;20045;-83
2022/08/26 01:15:05;;;;;;;18.85;9.32;;;;;;;19.31;72.02;98342.72;5005450;28;20041;-84
2022/08/26 01:17:30;;;;;;;17.73;8.95;;;;;;;19.28;72.17;98338.69;5008029;28;20075;-84
2022/08/26 01:20:03;;;;;;;20.88;9.57;;;;;;;19.27;72.09;98339.84;5004685;28;20010;-84
2022/08/26 01:22:58;;;;;;;15.40;8.80;;;;;;;19.24;72.05;98340.56;5006628;28;20425;-84
2022/08/26 01:25:27;;;;;;;17.05;8.98;;;;;;;19.22;72.25;98334.53;5001553;28;20049;-84
2022/08/26 01:27:56;;;;;;;17.45;8.95;;;;;;;19.20;72.20;98339.66;5003654;28;20037;-83
2022/08/26 01:30:23;;;;;;;17.55;9.02;;;;;;;19.17;72.39;98343.94;5007108;28;20026;-83
2022/08/26 01:32:50;;;;;;;15.90;8.85;;;;;;;19.15;72.39;98340.75;5007755;28;20416;-84
2022/08/26 01:35:16;;;;;;;15.98;8.93;;;;;;;19.09;72.44;98336.59;5000404;28;21289;-84
2022/08/26 01:37:41;;;;;;;16.95;9.18;;;;;;;19.06;72.42;98339.25;5005178;28;20030;-84
2022/08/26 01:40:12;;;;;;;15.32;9.43;;;;;;;19.04;72.47;98346.00;5006869;28;20416;-83
2022/08/26 01:42:40;;;;;;;18.40;9.20;;;;;;;19.00;72.36;98335.94;5006260;28;20040;-84
2022/08/26 01:45:11;;;;;;;17.88;9.25;;;;;;;18.95;72.33;98333.41;5001757;28;20026;-84
2022/08/26 01:47:37;;;;;;;15.40;8.15;;;;;;;18.94;72.48;98342.91;5003814;28;20025;-84
2022/08/26 01:50:11;;;;;;;16.58;9.38;;;;;;;18.90;72.44;98338.03;5004301;28;20022;-84
2022/08/26 01:52:40;;;;;;;15.18;9.00;;;;;;;18.90;72.52;98340.03;5004956;28;20412;-83
2022/08/26 01:55:06;;;;;;;18.70;9.70;;;;;;;18.86;72.26;98330.78;5008012;28;20018;-84
2022/08/26 01:57:31;;;;;;;18.23;9.18;;;;;;;18.86;72.46;98345.47;5007154;28;20356;-83
2022/08/26 02:00:00;;;;;;;22.60;10.55;;;;;;;18.86;72.53;98336.34;5005764;28;20527;-83
2022/08/26 02:02:26;;;;;;;19.42;9.55;;;;;;;18.86;72.53;98341.91;4998513;28;20042;-83
2022/08/26 02:04:58;;;;;;;17.33;9.25;;;;;;;18.86;72.73;98339.91;5001605;28;20038;-83
2022/08/26 02:07:24;;;;;;;17.50;9.38;;;;;;;18.87;72.65;98343.50;5006041;28;20030;-83
2022/08/26 02:09:49;;;;;;;15.27;8.40;;;;;;;18.83;72.71;98340.63;5003102;28;20030;-84
2022/08/26 02:12:18;;;;;;;18.13;9.57;;;;;;;18.86;72.70;98339.91;5000869;28;20033;-84
2022/08/26 02:14:56;;;;;;;18.73;9.23;;;;;;;18.85;72.35;98340.28;5005387;28;20590;-83
2022/08/26 02:17:32;;;;;;;17.48;9.25;;;;;;;18.84;72.66;98333.91;5009398;28;20562;-83
2022/08/26 02:19:57;;;;;;;16.35;9.18;;;;;;;18.82;72.63;98332.66;5002893;28;20045;-84
2022/08/26 02:22:23;;;;;;;16.95;9.48;;;;;;;18.81;72.63;98339.38;5006935;28;20135;-84
2022/08/26 02:24:55;;;;;;;16.67;9.15;;;;;;;18.79;72.40;98336.13;5009124;28;20022;-83
2022/08/26 02:27:25;;;;;;;15.90;9.45;;;;;;;18.77;72.71;98344.03;5006393;28;20013;-82
2022/08/26 02:30:05;;;;;;;;;;;;;;;18.75;72.50;98342.41;5003907;28;20053;-83
2022/08/26 02:32:31;;;;;;;19.17;9.43;;;;;;;18.72;72.54;98333.97;5004140;28;19917;-83
2022/08/26 02:34:56;;;;;;;18.27;9.23;;;;;;;18.70;72.53;98337.09;5007258;28;20029;-83
2022/08/26 02:37:22;;;;;;;15.93;8.40;;;;;;;18.68;72.66;98333.06;5003187;28;20081;-82
2022/08/26 02:39:47;;;;;;;17.05;8.82;;;;;;;18.66;72.80;98336.19;5001313;28;20030;-83
2022/08/26 02:42:13;;;;;;;18.40;9.40;;;;;;;18.64;72.71;98335.72;5002910;28;20034;-84
2022/08/26 02:44:39;;;;;;;18.63;9.52;;;;;;;18.63;72.78;98333.31;5006780;28;20022;-83
2022/08/26 02:47:05;;;;;;;21.30;9.70;;;;;;;18.60;72.69;98335.63;5002399;28;20041;-83
2022/08/26 02:49:31;;;;;;;25.85;10.27;;;;;;;18.60;72.80;98340.38;5005000;28;20037;-83
2022/08/26 02:51:59;;;;;;;15.20;8.90;;;;;;;18.58;72.78;98337.13;5004739;28;20017;-83
2022/08/26 02:54:25;;;;;;;12.95;8.80;;;;;;;18.57;72.67;98341.06;5007006;28;20113;-83
2022/08/26 02:56:50;;;;;;;19.35;9.40;;;;;;;18.56;72.66;98342.22;5000775;28;20278;-83
2022/08/26 02:59:16;;;;;;;19.80;9.63;;;;;;;18.54;72.65;98339.03;5001685;28;20084;-83
2022/08/26 03:01:43;;;;;;;23.73;9.43;;;;;;;18.51;72.66;98334.19;5001057;28;20481;-83
2022/08/26 03:04:10;;;;;;;17.88;9.13;;;;;;;18.50;72.64;98341.69;5002220;28;20081;-83
2022/08/26 03:06:37;;;;;;;19.23;9.48;;;;;;;18.48;72.53;98335.66;5002345;28;20034;-83
2022/08/26 03:09:04;;;;;;;16.10;9.65;;;;;;;18.48;72.54;98338.44;5006497;28;20388;-83
2022/08/26 03:11:34;;;;;;;18.02;9.43;;;;;;;18.47;72.79;98327.72;5004845;28;20101;-83
2022/08/26 03:14:00;;;;;;;14.52;9.05;;;;;;;18.45;72.69;98333.59;5003627;28;20042;-83
2022/08/26 03:16:26;;;;;;;20.38;9.98;;;;;;;18.42;72.67;98332.34;5006373;28;20038;-83
2022/08/26 03:18:51;;;;;;;18.38;9.68;;;;;;;18.40;72.75;98331.88;5007530;28;20037;-83
2022/08/26 03:21:17;;;;;;;19.67;8.15;;;;;;;18.38;72.63;98323.09;5010568;28;20040;-83
2022/08/26 03:23:43;;;;;;;15.40;9.35;;;;;;;18.36;72.69;98325.41;5004958;28;20062;-83
2022/08/26 03:26:11;;;;;;;17.45;8.90;;;;;;;18.36;72.70;98319.03;5008333;28;20080;-83
2022/08/26 03:30:38;;;;;;;19.98;9.13;;;;;;;18.34;72.77;98324.16;5010956;28;20026;-83
2022/08/26 03:31:27;;;;;;;;;;;;;;;18.32;72.60;98320.94;5004760;28;20399;-83
2022/08/26 03:33:53;;;;;;;22.08;9.77;;;;;;;18.28;72.68;98318.03;5006319;28;19957;-83
2022/08/26 03:36:19;;;;;;;18.48;9.57;;;;;;;18.25;72.80;98319.56;5012704;28;20483;-84
2022/08/26 03:38:45;;;;;;;17.65;9.63;;;;;;;18.22;72.59;98311.94;5001299;28;20038;-84
2022/08/26 03:41:11;;;;;;;15.27;9.07;;;;;;;18.23;72.70;98323.81;5005785;28;20068;-83
2022/08/26 03:43:37;;;;;;;14.52;8.93;;;;;;;18.19;72.65;98309.84;5007518;28;20060;-83
2022/08/26 03:46:07;;;;;;;18.17;9.52;;;;;;;18.19;72.73;98318.19;5010216;28;20052;-84
2022/08/26 03:48:33;;;;;;;17.58;9.68;;;;;;;18.18;72.72;98313.78;5008725;28;20655;-83
2022/08/26 03:50:59;;;;;;;17.58;9.63;;;;;;;18.16;72.42;98313.31;5007919;28;20028;-83
2022/08/26 03:53:24;;;;;;;21.63;9.50;;;;;;;18.14;72.63;98310.09;5008794;28;20084;-84
2022/08/26 03:55:50;;;;;;;19.85;9.32;;;;;;;18.12;72.88;98317.97;5002861;28;20026;-83
2022/08/26 03:58:15;;;;;;;17.20;9.63;;;;;;;18.12;72.99;98313.22;5005709;28;20068;-82
2022/08/26 04:00:41;;;;;;;16.42;9.32;;;;;;;18.12;72.97;98315.19;5006943;28;20030;-82
2022/08/26 04:03:07;;;;;;;15.88;9.40;;;;;;;18.09;72.78;98305.59;5007715;28;20084;-82
2022/08/26 04:05:32;;;;;;;15.43;9.05;;;;;;;18.10;72.86;98306.41;5009879;28;20113;-83
2022/08/26 04:07:58;;;;;;;16.00;8.88;;;;;;;18.08;72.83;98305.94;5005969;28;20576;-82
2022/08/26 04:10:26;;;;;;;17.35;9.90;;;;;;;18.05;72.65;98301.91;5006618;28;20083;-83
2022/08/26 04:12:52;;;;;;;16.27;9.48;;;;;;;18.04;72.73;98308.63;4998233;28;20045;-83
2022/08/26 04:15:18;;;;;;;17.20;9.27;;;;;;;18.05;72.96;98314.97;5002130;28;20026;-83
2022/08/26 04:17:44;;;;;;;14.15;8.80;;;;;;;18.05;72.88;98309.41;5004648;28;20354;-84
2022/08/26 04:20:12;;;;;;;17.27;8.93;;;;;;;18.04;72.85;98305.84;5007565;28;20521;-84
2022/08/26 04:22:40;;;;;;;23.87;9.73;;;;;;;18.05;73.01;98307.47;5004753;28;20034;-82
2022/08/26 04:25:06;;;;;;;18.02;9.85;;;;;;;18.05;72.77;98310.22;5009386;28;20500;-82
2022/08/26 04:27:32;;;;;;;19.90;9.93;;;;;;;18.06;72.94;98314.63;5013211;28;20042;-83
2022/08/26 04:29:57;;;;;;;18.00;10.25;;;;;;;18.05;73.10;98312.19;5011582;28;20399;-83
2022/08/26 04:32:23;;;;;;;18.95;10.15;;;;;;;18.07;73.14;98319.03;5006472;28;20034;-83
2022/08/26 04:34:48;;;;;;;22.52;10.15;;;;;;;18.09;72.94;98315.88;5010711;28;20553;-83
2022/08/26 04:37:15;;;;;;;19.05;10.02;;;;;;;18.10;73.14;98321.09;5013148;28;20391;-82
2022/08/26 04:39:40;;;;;;;20.10;10.70;;;;;;;18.13;73.06;98314.03;5011588;28;20040;-83
2022/08/26 04:42:06;;;;;;;21.48;10.25;;;;;;;18.17;73.26;98316.91;5010208;28;20041;-83
2022/08/26 04:44:35;;;;;;;21.02;9.93;;;;;;;18.18;73.20;98313.78;5011344;28;20026;-81
2022/08/26 04:47:00;;;;;;;21.67;10.05;;;;;;;18.20;73.31;98318.97;5011037;28;20083;-83
2022/08/26 04:49:26;;;;;;;17.88;9.85;;;;;;;18.23;73.40;98315.50;5012524;28;20030;-83
2022/08/26 04:51:52;;;;;;;18.20;9.93;;;;;;;18.25;73.34;98316.78;5008353;28;20480;-83
2022/08/26 04:54:18;;;;;;;16.00;10.23;;;;;;;18.29;73.38;98309.38;5012698;28;20056;-83
2022/08/26 04:56:46;;;;;;;17.23;9.77;;;;;;;18.33;73.20;98308.66;5011709;28;20044;-83
2022/08/26 04:59:16;;;;;;;22.05;10.95;;;;;;;18.34;73.27;98311.06;5009829;28;20041;-82
2022/08/26 05:01:50;;;;;;;18.00;10.27;;;;;;;18.38;73.53;98306.44;5002857;28;20045;-82
2022/08/26 05:04:18;;;;;;;19.27;10.00;;;;;;;18.46;73.82;98304.66;5011923;28;20423;-82
2022/08/26 05:06:43;;;;;;;19.15;10.50;;;;;;;18.52;73.59;98308.03;5009190;28;20030;-83
2022/08/26 05:09:09;;;;;;;16.17;9.88;;;;;;;18.56;73.85;98306.94;5012827;28;20036;-83
2022/08/26 05:11:34;;;;;;;19.85;10.30;;;;;;;18.59;73.84;98303.47;5004781;28;20026;-83
2022/08/26 05:14:00;;;;;;;18.77;10.30;;;;;;;18.65;73.90;98308.78;5011014;28;20037;-83
2022/08/26 05:16:26;;;;;;;13.82;9.68;;;;;;;18.69;73.97;98309.69;5006867;28;20164;-83
2022/08/26 05:18:53;;;;;;;20.40;10.15;;;;;;;18.72;74.01;98304.22;5012401;28;20042;-83
2022/08/26 05:21:22;;;;;;;19.00;11.25;;;;;;;18.75;74.15;98314.63;5006429;28;20026;-83
2022/08/26 05:23:50;;;;;;;16.97;9.73;;;;;;;18.79;73.85;98300.03;5011856;28;20037;-83
2022/08/26 05:26:16;;;;;;;16.63;9.98;;;;;;;18.82;74.09;98302.88;5006724;28;20763;-84
2022/08/26 05:28:41;;;;;;;18.38;10.55;;;;;;;18.85;74.19;98304.16;5012049;28;20068;-84
2022/08/26 05:31:19;;;;;;;17.00;9.93;;;;;;;18.90;74.05;98306.69;5005275;28;20108;-83
2022/08/26 05:33:45;;;;;;;15.80;9.95;;;;;;;18.95;74.14;98311.16;5008990;28;20033;-83
2022/08/26 05:36:15;;;;;;;18.02;9.73;;;;;;;19.00;74.15;98310.94;5005720;28;20049;-82
2022/08/26 05:38:40;;;;;;;17.58;8.70;;;;;;;19.04;74.00;98306.28;5010611;28;20100;-82
2022/08/26 05:41:40;;;;;;;19.10;9.10;;;;;;;19.12;74.15;98310.88;5005325;28;20445;-84
2022/08/26 05:44:09;;;;;;;12.38;8.57;;;;;;;19.17;74.37;98312.56;4964125;28;20044;-82
2022/08/26 05:46:36;;;;;;;14.00;8.70;;;;;;;19.22;74.20;98305.91;5003922;28;20123;-81
2022/08/26 05:49:03;;;;;;;14.57;9.10;;;;;;;19.25;73.84;98303.25;5010212;28;20042;-82
2022/08/26 05:51:29;;;;;;;17.75;9.57;;;;;;;19.31;73.94;98303.78;5009436;28;20029;-84
2022/08/26 05:53:54;;;;;;;17.00;9.43;;;;;;;19.37;73.94;98302.34;5009419;28;20084;-82
2022/08/26 05:56:26;;;;;;;14.38;8.80;;;;;;;19.40;73.81;98300.81;5008396;28;20376;-83
2022/08/26 05:58:52;;;;;;;18.52;8.63;;;;;;;19.46;73.98;98302.97;5003546;28;20393;-84
2022/08/26 06:01:19;;;;;;;17.33;8.93;;;;;;;19.51;73.86;98304.66;5008287;28;20087;-84
2022/08/26 06:03:50;;;;;;;14.82;8.73;;;;;;;19.56;73.83;98298.03;4999425;28;20108;-85
2022/08/26 06:06:31;;;;;;;16.15;8.63;;;;;;;19.60;73.76;98299.72;5004746;28;20373;-89
2022/08/26 06:08:59;;;;;;;16.02;8.27;;;;;;;19.68;73.53;98291.56;5002541;28;20034;-87
2022/08/26 06:11:26;;;;;;;16.05;8.35;;;;;;;19.72;73.50;98295.25;5009519;28;20034;-86
2022/08/26 06:13:53;;;;;;;15.88;8.27;;;;;;;19.74;73.18;98298.47;5001224;28;20030;-83
2022/08/26 06:16:23;;;;;;;17.92;8.65;;;;;;;19.78;73.19;98299.34;5004807;28;20045;-82
2022/08/26 06:18:56;;;;;;;;;;;;;;;19.84;73.32;98300.66;5005820;28;20041;-90
2022/08/26 06:21:28;;;;;;;16.10;7.93;;;;;;;19.89;73.30;98291.28;5000170;28;19976;-90
2022/08/26 06:26:46;;;;;;;13.25;7.50;;;;;;;20.07;73.09;98306.41;5003468;28;20053;-90
2022/08/26 06:29:12;;;;;;;17.45;8.40;;;;;;;20.14;72.93;98305.75;5005181;28;20117;-84
2022/08/26 06:31:38;;;;;;;14.30;7.88;;;;;;;20.20;73.06;98309.84;5005582;28;20139;-88
2022/08/26 06:34:04;;;;;;;18.05;8.10;;;;;;;20.28;72.82;98310.00;5009146;28;20040;-85
2022/08/26 06:36:31;;;;;;;14.10;8.52;;;;;;;20.32;72.49;98302.53;5008325;28;20037;-85
2022/08/26 06:39:04;;;;;;;14.23;8.23;;;;;;;20.37;72.30;98302.25;5010526;28;20037;-88
2022/08/26 06:41:33;;;;;;;14.07;8.52;;;;;;;20.47;71.97;98306.41;5018699;28;20129;-87
2022/08/26 06:43:59;;;;;;;12.93;8.15;;;;;;;20.53;72.09;98304.97;5005402;28;20030;-88
2022/08/26 06:46:26;;;;;;;14.18;8.43;;;;;;;20.61;71.99;98311.47;5003216;28;20033;-86
2022/08/26 06:48:53;;;;;;;12.85;7.93;;;;;;;20.68;71.76;98306.06;5007327;28;20033;-86
2022/08/26 06:51:21;;;;;;;13.00;7.63;;;;;;;20.75;71.77;98311.75;5001802;28;20052;-84
2022/08/26 06:53:50;;;;;;;16.37;7.77;;;;;;;20.84;71.40;98313.56;5004711;28;20022;-84
2022/08/26 06:56:21;;;;;;;14.20;7.65;;;;;;;20.90;71.41;98310.09;5008457;28;20030;-90
2022/08/26 06:58:50;;;;;;;13.82;7.20;;;;;;;20.99;71.16;98315.41;5001812;28;20026;-85
2022/08/26 07:01:23;;;;;;;14.40;7.47;;;;;;;21.07;71.18;98313.59;5007176;28;20030;-87
2022/08/26 07:03:51;;;;;;;9.27;6.65;;;;;;;21.16;70.84;98310.56;5006796;28;20065;-85
2022/08/26 07:06:20;;;;;;;13.70;7.03;;;;;;;21.21;70.25;98316.63;5009454;28;20026;-86
2022/08/26 07:08:49;;;;;;;;;;;;;;;21.30;70.45;98321.97;5006676;28;20555;-87
2022/08/26 07:11:16;;;;;;;12.20;6.40;;;;;;;21.37;70.07;98319.31;5004080;28;20339;-84
2022/08/26 07:13:42;;;;;;;14.65;7.00;;;;;;;21.43;69.71;98322.59;5006214;28;20034;-84
2022/08/26 07:16:13;;;;;;;13.10;7.07;;;;;;;21.48;69.75;98315.88;5007043;28;20095;-87
2022/08/26 07:18:41;;;;;;;15.32;7.20;;;;;;;21.58;69.67;98320.84;5006488;28;20034;-86
2022/08/26 07:21:09;;;;;;;14.52;6.82;;;;;;;21.64;69.34;98319.38;5003918;28;20480;-81
2022/08/26 07:23:35;;;;;;;12.75;6.47;;;;;;;21.69;68.96;98316.25;5005380;28;20109;-86
2022/08/26 07:26:10;;;;;;;13.68;6.80;;;;;;;21.78;69.20;98318.78;5002342;28;20109;-84
2022/08/26 07:28:36;;;;;;;13.20;6.50;;;;;;;21.88;68.66;98314.53;5008293;28;20038;-86
2022/08/26 07:31:07;;;;;;;10.95;6.38;;;;;;;21.96;68.32;98313.47;5004687;28;20572;-84
2022/08/26 07:33:33;;;;;;;11.63;5.65;;;;;;;22.04;68.10;98319.16;5000662;28;20061;-81
2022/08/26 07:35:59;;;;;;;9.60;5.75;;;;;;;22.13;67.91;98316.91;5002762;28;20041;-85
2022/08/26 07:38:24;;;;;;;10.73;6.03;;;;;;;22.21;67.52;98310.22;5004723;28;20037;-89
2022/08/26 07:40:55;;;;;;;10.18;5.80;;;;;;;22.26;66.96;98314.69;5007172;28;20085;-92
2022/08/26 07:43:21;;;;;;;11.23;5.50;;;;;;;22.30;66.72;98312.75;5002127;28;20022;-85
2022/08/26 07:45:46;;;;;;;10.27;6.00;;;;;;;22.34;66.48;98301.59;5004362;28;20026;-85
2022/08/26 07:48:11;;;;;;;9.90;5.97;;;;;;;22.39;66.47;98304.88;5006502;28;20029;-85
2022/08/26 07:50:40;;;;;;;9.80;6.15;;;;;;;22.49;66.20;98306.22;5004143;28;20488;-89
2022/08/26 07:53:06;;;;;;;10.05;5.47;;;;;;;22.58;66.03;98311.50;5003236;28;20061;-85
2022/08/26 07:55:31;;;;;;;10.65;5.82;;;;;;;22.64;65.88;98309.19;5007476;28;20066;-87
2022/08/26 07:58:01;;;;;;;11.50;5.53;;;;;;;22.69;65.58;98312.47;5005718;28;20053;-88
2022/08/26 08:00:31;;;;;;;14.75;6.13;;;;;;;22.78;65.43;98303.75;5008335;28;20044;-89
2022/08/26 08:03:03;;;;;;;10.35;5.50;;;;;;;22.85;65.16;98308.63;5006344;28;20053;-85
2022/08/26 08:05:32;;;;;;;15.57;6.75;;;;;;;22.94;65.18;98309.13;5008151;28;20037;-87
2022/08/26 08:07:58;;;;;;;11.30;6.03;;;;;;;23.03;64.88;98308.81;5005343;28;20026;-83
2022/08/26 08:10:25;;;;;;;10.95;6.05;;;;;;;23.09;64.89;98306.47;5009803;28;20045;-85
2022/08/26 08:12:51;;;;;;;11.10;6.35;;;;;;;23.17;65.01;98305.38;5008382;28;20038;-86
2022/08/26 08:15:19;;;;;;;10.35;6.13;;;;;;;23.22;64.75;98305.06;5010313;28;20065;-87
2022/08/26 08:17:46;;;;;;;13.10;5.95;;;;;;;23.31;64.86;98305.50;5009935;28;20430;-88
2022/08/26 08:20:13;;;;;;;13.88;6.10;;;;;;;23.40;64.62;98304.38;5003882;28;20511;-84
2022/08/26 08:22:38;;;;;;;12.25;6.35;;;;;;;23.47;64.64;98302.44;5001982;28;20034;-83
2022/08/26 08:25:05;;;;;;;11.38;6.20;;;;;;;23.53;64.27;98307.69;5007566;28;20026;-85
2022/08/26 08:27:34;;;;;;;11.48;6.40;;;;;;;23.58;64.50;98301.75;5012021;28;20380;-86
2022/08/26 08:30:00;;;;;;;16.65;7.25;;;;;;;23.65;64.00;98299.00;5009295;28;20112;-80
2022/08/26 08:32:28;;;;;;;12.15;6.05;;;;;;;23.70;63.90;98303.41;5008905;28;20112;-79
2022/08/26 08:34:53;;;;;;;16.85;6.47;;;;;;;23.79;63.93;98298.28;5009846;28;20022;-79
2022/08/26 08:37:18;;;;;;;14.07;6.85;;;;;;;23.87;63.98;98291.56;5010012;28;20084;-80
2022/08/26 08:39:44;;;;;;;20.90;12.23;;;;;;;23.93;63.68;98286.38;5004796;28;20084;-82
2022/08/26 08:42:52;;;;;;;13.65;7.10;;;;;;;23.98;63.81;98286.03;5006877;28;20034;-83
2022/08/26 08:45:26;;;;;;;12.45;6.20;;;;;;;24.06;63.74;98292.47;5002176;28;20062;-80
2022/08/26 08:47:58;;;;;;;16.23;6.55;;;;;;;24.13;63.79;98284.13;5005256;28;20096;-80
2022/08/26 08:50:34;;;;;;;11.15;6.57;;;;;;;24.20;63.44;98286.19;5003391;28;20089;-81
2022/08/26 08:53:03;;;;;;;13.15;6.60;;;;;;;24.28;63.45;98282.19;5011782;28;20022;-81
2022/08/26 08:55:39;;;;;;;11.57;6.23;;;;;;;24.32;63.52;98280.22;5011716;28;20057;-81
2022/08/26 08:58:08;;;;;;;14.35;6.78;;;;;;;24.41;63.26;98287.47;5012521;28;20261;-79
2022/08/26 09:00:58;;;;;;;14.05;6.93;;;;;;;24.50;63.44;98285.88;5012102;28;20037;-79
2022/08/26 09:03:44;;;;;;;14.57;6.47;;;;;;;24.59;63.19;98279.94;5012437;28;20050;-79
2022/08/26 09:06:16;;;;;;;10.82;6.18;;;;;;;24.67;63.00;98278.72;5012483;28;20104;-80
2022/08/26 09:08:43;;;;;;;28.95;16.58;;;;;;;24.77;62.86;98282.81;5012537;28;20061;-80
2022/08/26 09:11:09;;;;;;;26.75;17.55;;;;;;;24.83;62.33;98277.63;5011318;28;20472;-80
2022/08/26 09:13:37;;;;;;;12.95;6.82;;;;;;;24.87;62.19;98272.00;5011071;28;20030;-79
2022/08/26 09:16:31;;;;;;;14.55;6.13;;;;;;;24.92;62.21;98278.03;5004746;28;20143;-80
2022/08/26 09:18:57;;;;;;;10.38;6.07;;;;;;;25.00;61.99;98269.63;5006690;28;20026;-78
2022/08/26 09:21:24;;;;;;;14.57;5.97;;;;;;;25.06;61.95;98280.06;5009718;28;20048;-80
2022/08/26 09:23:52;;;;;;;10.93;5.63;;;;;;;25.15;61.86;98274.06;5004454;28;20072;-81
2022/08/26 09:26:26;;;;;;;13.38;5.35;;;;;;;25.21;61.25;98269.66;5005123;28;20385;-81
2022/08/26 09:29:04;;;;;;;12.10;5.53;;;;;;;25.26;61.17;98266.44;5004905;28;20033;-85
2022/08/26 09:31:32;;;;;;;13.07;5.13;;;;;;;25.32;60.45;98266.06;5005229;28;20069;-81
2022/08/26 09:34:07;;;;;;;10.27;4.90;;;;;;;25.37;60.26;98263.63;5009133;28;20542;-81
2022/08/26 09:36:35;;;;;;;9.15;5.22;;;;;;;25.45;59.06;98267.28;5009401;28;20731;-80
2022/08/26 09:39:01;;;;;;;14.35;5.00;;;;;;;25.51;58.74;98264.88;5012109;28;20113;-80
2022/08/26 09:41:32;;;;;;;12.00;5.40;;;;;;;25.57;58.66;98257.66;5011742;28;20080;-79
2022/08/26 09:44:12;;;;;;;10.88;4.63;;;;;;;25.65;58.07;98264.88;5012058;28;20564;-81
2022/08/26 09:46:55;;;;;;;11.75;4.35;;;;;;;25.73;58.00;98257.22;5011801;28;20029;-80
2022/08/26 09:49:25;;;;;;;13.13;5.10;;;;;;;25.82;57.31;98257.63;5011629;28;20030;-79
2022/08/26 09:52:03;;;;;;;7.68;4.60;;;;;;;25.90;57.77;98257.59;5011196;28;20525;-79
2022/08/26 09:54:29;;;;;;;8.88;5.00;;;;;;;25.98;57.07;98247.94;5011483;28;20069;-80
2022/08/26 09:57:19;;;;;;;7.60;5.25;;;;;;;26.04;57.14;98254.75;5011000;28;20101;-79
2022/08/26 09:59:45;;;;;;;15.10;5.93;;;;;;;26.09;55.90;98248.72;5009955;28;20116;-80
2022/08/26 10:02:16;;;;;;;12.98;5.13;;;;;;;26.18;56.36;98242.69;5010635;28;20117;-79
2022/08/26 10:04:50;;;;;;;9.20;5.10;;;;;;;26.24;56.32;98251.50;5010964;28;20042;-80
2022/08/26 10:07:35;;;;;;;9.60;5.15;;;;;;;26.32;56.07;98249.47;5011435;28;20033;-81
2022/08/26 10:10:04;;;;;;;12.75;5.28;;;;;;;26.39;55.67;98238.19;5010990;28;20112;-82
2022/08/26 10:12:34;;;;;;;11.75;5.45;;;;;;;26.47;55.51;98238.94;5010566;28;20045;-80
2022/08/26 10:15:06;;;;;;;10.18;4.70;;;;;;;26.50;55.19;98240.94;5010914;28;20022;-81
2022/08/26 10:17:48;;;;;;;11.95;6.05;;;;;;;26.54;54.77;98234.06;5011136;28;20041;-81
2022/08/26 10:20:24;;;;;;;9.70;4.95;;;;;;;26.60;54.65;98228.84;5009132;28;20556;-80
2022/08/26 10:23:11;;;;;;;12.75;5.20;;;;;;;26.68;54.30;98221.16;5005445;28;20023;-79
2022/08/26 10:25:54;;;;;;;11.80;4.55;;;;;;;26.75;54.54;98224.72;5009444;28;20030;-77
2022/08/26 10:28:36;;;;;;;8.52;5.35;;;;;;;26.84;54.72;98224.31;5007115;28;20029;-79
2022/08/26 10:31:17;;;;;;;12.52;5.30;;;;;;;26.95;54.40;98221.41;5010978;28;20025;-79
2022/08/26 10:33:42;;;;;;;10.88;4.70;;;;;;;27.03;53.97;98220.16;5010794;28;20037;-79
2022/08/26 10:36:48;;;;;;;10.48;4.35;;;;;;;27.10;53.76;98215.69;5010277;28;20026;-80
2022/08/26 10:39:05;;;;;;;10.10;4.70;;;;;;;27.19;53.54;98216.00;5010415;28;20041;-80
2022/08/26 10:41:37;;;;;;;9.95;4.50;;;;;;;27.25;53.10;98222.00;5010472;28;20061;-78
2022/08/26 10:44:07;;;;;;;8.10;4.47;;;;;;;27.30;52.34;98218.72;5010487;28;20057;-83
2022/08/26 10:46:54;;;;;;;7.32;4.15;;;;;;;27.34;52.88;98214.66;5011045;28;20037;-84
2022/08/26 10:49:20;;;;;;;10.07;4.70;;;;;;;27.42;52.10;98211.78;5010417;28;20132;-83
2022/08/26 10:52:02;;;;;;;11.27;4.47;;;;;;;27.48;52.28;98224.22;5010478;28;20125;-84
2022/08/26 10:54:39;;;;;;;9.13;4.50;;;;;;;27.56;51.98;98216.50;5010605;28;20483;-84
2022/08/26 10:57:16;;;;;;;5.97;3.95;;;;;;;27.64;51.83;98226.50;5011068;28;20045;-84
2022/08/26 11:01:40;;;;;;;8.65;3.95;;;;;;;27.74;51.99;98214.28;5010547;28;20038;-83
2022/08/26 11:03:02;;;;;;;5.93;3.78;;;;;;;27.86;51.47;98212.97;5010413;28;20128;-82
2022/08/26 11:05:28;;;;;;;7.85;4.25;;;;;;;27.88;50.78;98215.34;5007849;28;20030;-83
2022/08/26 11:08:19;;;;;;;7.45;3.72;;;;;;;27.94;50.73;98216.50;5010087;28;20042;-82
2022/08/26 11:10:50;;;;;;;11.30;3.80;;;;;;;27.99;50.55;98212.41;5010658;28;20867;-83
2022/08/26 11:13:16;;;;;;;7.57;3.67;;;;;;;28.06;50.00;98201.88;5010986;28;20053;-84
2022/08/26 11:15:42;;;;;;;8.95;4.05;;;;;;;28.12;49.05;98202.22;5011438;28;20116;-85
2022/08/26 11:18:10;;;;;;;7.28;3.50;;;;;;;28.19;48.15;98192.88;5011105;28;20435;-84
2022/08/26 11:20:38;;;;;;;5.95;3.38;;;;;;;28.25;46.85;98193.22;5010311;28;20022;-83
2022/08/26 11:23:15;;;;;;;7.28;3.67;;;;;;;28.33;47.89;98191.88;5001723;28;20026;-83
2022/08/26 11:26:12;;;;;;;9.10;3.45;;;;;;;28.39;47.03;98187.38;5000956;28;20560;-83
2022/08/26 11:28:48;;;;;;;6.00;3.22;;;;;;;28.45;46.17;98182.84;5000713;28;20038;-83
2022/08/26 11:31:17;;;;;;;8.77;3.22;;;;;;;28.50;46.21;98185.19;5002392;28;20037;-83
2022/08/26 11:33:42;;;;;;;8.07;3.50;;;;;;;28.55;44.77;98177.50;5004347;28;20048;-86
2022/08/26 11:36:09;;;;;;;7.57;3.30;;;;;;;28.59;44.65;98170.56;5013739;28;20030;-87
2022/08/26 11:38:41;;;;;;;7.55;3.05;;;;;;;28.65;45.40;98168.88;5013800;28;20380;-86
2022/08/26 11:41:18;;;;;;;5.70;3.17;;;;;;;28.70;44.78;98167.59;5011733;28;20036;-86